createdAt,value
2019-05-13T00:01:23.823Z,30.70
2019-05-13T00:03:55.833Z,30.50
2019-05-13T00:06:27.638Z,30.50
2019-05-13T00:08:59.470Z,30.70
2019-05-13T00:11:31.503Z,30.60
2019-05-13T00:14:04.414Z,30.60
2019-05-13T00:16:36.604Z,30.50
2019-05-13T00:19:08.415Z,30.50
2019-05-13T00:21:40.468Z,30.40
2019-05-13T00:24:13.803Z,30.50
2019-05-13T00:26:47.159Z,30.50
2019-05-13T00:29:19.446Z,30.50
2019-05-13T00:31:53.854Z,30.70
2019-05-13T00:34:25.286Z,30.70
2019-05-13T00:37:07.673Z,30.60
2019-05-13T00:39:33.410Z,30.70
2019-05-13T00:42:06.002Z,30.50
2019-05-13T00:44:38.018Z,30.70
2019-05-13T00:47:13.131Z,30.70
2019-05-13T00:49:44.512Z,30.40
2019-05-13T00:52:16.521Z,30.30
2019-05-13T00:54:48.317Z,30.50
2019-05-13T00:57:20.195Z,30.50
2019-05-13T00:59:54.027Z,30.40
2019-05-13T01:02:25.595Z,30.50
2019-05-13T01:04:57.438Z,30.60
2019-05-13T01:07:29.437Z,30.50
2019-05-13T01:10:01.199Z,30.60
2019-05-13T01:12:34.476Z,30.60
2019-05-13T01:15:07.916Z,30.60
2019-05-13T01:17:39.698Z,30.70
2019-05-13T01:20:14.165Z,30.50
2019-05-13T01:22:46.742Z,30.50
2019-05-13T01:25:18.509Z,30.50
2019-05-13T01:27:50.465Z,30.40
2019-05-13T01:30:23.813Z,30.40
2019-05-13T01:32:55.725Z,30.30
2019-05-13T01:35:27.588Z,30.20
2019-05-13T01:37:59.395Z,30.10
2019-05-13T01:40:31.155Z,30.00
2019-05-13T01:43:03.703Z,29.90
2019-05-13T01:45:35.889Z,29.70
2019-05-13T01:48:08.190Z,29.90
2019-05-13T01:50:40.187Z,29.90
2019-05-13T01:53:14.025Z,29.90
2019-05-13T01:55:45.861Z,30.00
2019-05-13T01:58:18.028Z,30.00
2019-05-13T02:00:51.779Z,30.00
2019-05-13T02:03:24.906Z,30.00
2019-05-13T02:05:57.965Z,30.00
2019-05-13T02:08:29.821Z,30.00
2019-05-13T02:11:04.018Z,30.00
2019-05-13T02:13:35.584Z,30.10
2019-05-13T02:16:07.653Z,30.00
2019-05-13T02:18:39.810Z,30.10
2019-05-13T02:21:13.802Z,30.20
2019-05-13T02:23:45.440Z,30.20
2019-05-13T02:26:17.263Z,30.20
2019-05-13T02:28:49.265Z,30.10
2019-05-13T02:31:31.970Z,30.00
2019-05-13T02:33:55.044Z,30.00
2019-05-13T02:36:26.817Z,30.00
2019-05-13T02:39:02.218Z,30.00
2019-05-13T02:41:34.202Z,29.90
2019-05-13T02:44:06.473Z,30.00
2019-05-13T02:46:38.319Z,29.90
2019-05-13T02:49:12.211Z,29.90
2019-05-13T02:51:43.983Z,29.90
2019-05-13T02:54:16.798Z,30.00
2019-05-13T02:56:48.592Z,30.10
2019-05-13T02:59:22.629Z,30.10
2019-05-13T03:01:54.122Z,30.20
2019-05-13T03:04:26.083Z,30.20
2019-05-13T03:06:57.843Z,30.20
2019-05-13T03:09:32.473Z,30.20
2019-05-13T03:12:04.360Z,30.20
2019-05-13T03:14:36.741Z,30.00
2019-05-13T03:17:23.783Z,30.10
2019-05-13T03:19:55.538Z,30.10
2019-05-13T03:22:27.531Z,30.00
2019-05-13T03:25:02.839Z,29.80
2019-05-13T03:27:34.270Z,29.80
2019-05-13T03:30:06.604Z,29.60
2019-05-13T03:32:50.311Z,29.70
2019-05-13T03:35:16.591Z,29.60
2019-05-13T03:37:45.639Z,29.70
2019-05-13T03:40:18.543Z,29.80
2019-05-13T03:42:53.380Z,29.70
2019-05-13T03:45:27.948Z,29.40
2019-05-13T03:48:04.279Z,29.30
2019-05-13T03:50:36.033Z,29.30
2019-05-13T03:53:07.951Z,29.40
2019-05-13T03:55:43.182Z,29.50
2019-05-13T03:58:13.735Z,29.40
2019-05-13T04:00:46.614Z,29.30
2019-05-13T04:03:18.724Z,29.40
2019-05-13T04:05:52.831Z,29.40
2019-05-13T04:08:24.303Z,29.40
2019-05-13T04:10:57.478Z,29.40
2019-05-13T04:13:29.533Z,29.30
2019-05-13T04:16:03.958Z,29.40
2019-05-13T04:18:35.640Z,29.40
2019-05-13T04:21:07.593Z,29.30
2019-05-13T04:23:42.327Z,29.10
2019-05-13T04:26:14.611Z,29.10
2019-05-13T04:28:46.711Z,29.20
2019-05-13T04:31:18.823Z,29.10
2019-05-13T04:33:53.081Z,29.20
2019-05-13T04:36:24.385Z,29.20
2019-05-13T04:38:56.162Z,29.20
2019-05-13T04:41:28.142Z,29.20
2019-05-13T04:44:02.653Z,29.20
2019-05-13T04:46:33.680Z,29.30
2019-05-13T04:49:05.930Z,29.30
2019-05-13T04:51:41.868Z,29.10
2019-05-13T04:54:13.285Z,29.10
2019-05-13T04:56:45.525Z,28.90
2019-05-13T04:59:17.338Z,29.00
2019-05-13T05:02:36.817Z,29.00
2019-05-13T05:05:32.769Z,29.10
2019-05-13T05:09:08.371Z,29.20
2019-05-13T05:12:23.282Z,29.20
2019-05-13T05:15:41.727Z,29.40
2019-05-13T05:19:13.568Z,29.40
2019-05-13T05:22:02.752Z,29.00
2019-05-13T05:25:01.980Z,29.10
2019-05-13T05:28:04.387Z,29.10
2019-05-13T05:31:51.947Z,29.10
2019-05-13T05:35:26.134Z,29.30
2019-05-13T05:38:31.674Z,29.20
2019-05-13T05:41:05.751Z,29.10
2019-05-13T05:43:45.224Z,29.30
2019-05-13T05:46:17.428Z,29.00
2019-05-13T05:48:53.165Z,29.20
2019-05-13T05:51:27.874Z,29.30
2019-05-13T05:54:03.743Z,29.30
2019-05-13T05:56:36.885Z,29.10
2019-05-13T05:59:12.513Z,28.90
2019-05-13T06:01:48.212Z,28.80
2019-05-13T06:04:22.244Z,29.00
2019-05-13T06:06:56.993Z,29.20
2019-05-13T06:09:28.750Z,29.20
2019-05-13T06:12:01.693Z,29.40
2019-05-13T06:14:34.388Z,29.50
2019-05-13T06:17:06.372Z,29.30
2019-05-13T06:19:38.197Z,29.40
2019-05-13T06:22:12.312Z,29.60
2019-05-13T06:24:45.720Z,29.80
2019-05-13T06:27:17.625Z,30.00
2019-05-13T06:29:52.615Z,30.40
2019-05-13T06:32:26.233Z,30.60
2019-05-13T06:34:57.763Z,30.70
2019-05-13T06:37:32.041Z,30.70
2019-05-13T06:40:03.171Z,30.50
2019-05-13T06:42:34.993Z,30.70
2019-05-13T06:45:07.789Z,30.80
2019-05-13T06:47:41.326Z,30.70
2019-05-13T06:50:13.448Z,30.90
2019-05-13T06:52:45.674Z,30.80
2019-05-13T06:55:17.702Z,30.90
2019-05-13T06:57:51.788Z,31.00
2019-05-13T07:00:23.503Z,30.60
2019-05-13T07:02:55.646Z,30.60
2019-05-13T07:05:27.385Z,30.70
2019-05-13T07:08:01.810Z,30.80
2019-05-13T07:10:33.134Z,30.80
2019-05-13T07:13:06.115Z,30.80
2019-05-13T07:15:37.869Z,30.70
2019-05-13T07:18:11.775Z,30.80
2019-05-13T07:20:43.450Z,31.00
2019-05-13T07:23:15.749Z,30.90
2019-05-13T07:25:47.526Z,30.80
2019-05-13T07:28:21.946Z,30.90
2019-05-13T07:30:53.892Z,31.00
2019-05-13T07:33:26.084Z,31.10
2019-05-13T07:36:02.389Z,30.90
2019-05-13T07:38:34.977Z,30.90
2019-05-13T07:41:07.616Z,30.70
2019-05-13T07:43:42.483Z,30.80
2019-05-13T07:46:13.255Z,30.70
2019-05-13T07:48:45.123Z,30.90
2019-05-13T07:51:16.885Z,30.90
2019-05-13T07:53:51.604Z,30.70
2019-05-13T07:56:22.601Z,30.80
2019-05-13T07:58:54.444Z,30.80
2019-05-13T08:01:26.247Z,30.90
2019-05-13T08:03:58.110Z,31.00
2019-05-13T08:06:32.248Z,30.80
2019-05-13T08:09:05.707Z,30.90
2019-05-13T08:11:56.354Z,31.10
2019-05-13T08:14:12.347Z,31.00
2019-05-13T08:16:44.355Z,31.10
2019-05-13T08:19:16.454Z,31.10
2019-05-13T08:21:48.312Z,30.80
2019-05-13T08:24:22.664Z,30.80
2019-05-13T08:26:53.723Z,30.80
2019-05-13T08:29:25.571Z,30.90
2019-05-13T08:31:57.461Z,30.80
2019-05-13T08:34:29.259Z,30.70
2019-05-13T08:37:02.746Z,30.90
2019-05-13T08:39:38.357Z,30.90
2019-05-13T08:42:16.063Z,30.90
2019-05-13T08:44:41.917Z,31.00
2019-05-13T08:47:13.711Z,31.10
2019-05-13T08:49:45.564Z,31.10
2019-05-13T08:52:17.309Z,31.10
2019-05-13T08:54:52.232Z,31.20
2019-05-13T08:57:23.122Z,31.20
2019-05-13T08:59:55.201Z,31.20
2019-05-13T09:02:27.009Z,31.10
2019-05-13T09:04:59.098Z,31.00
2019-05-13T09:07:32.154Z,31.10
2019-05-13T09:10:05.373Z,31.10
2019-05-13T09:12:40.338Z,31.00
2019-05-13T09:15:12.054Z,31.20
2019-05-13T09:17:44.535Z,31.30
2019-05-13T09:20:16.511Z,31.30
2019-05-13T09:22:48.322Z,31.40
2019-05-13T09:25:21.578Z,31.40
2019-05-13T09:27:53.566Z,31.30
2019-05-13T09:30:27.391Z,31.50
2019-05-13T09:32:59.062Z,31.50
2019-05-13T09:35:31.625Z,31.50
2019-05-13T09:38:03.550Z,31.60
2019-05-13T09:40:36.182Z,31.50
2019-05-13T09:43:07.954Z,31.50
2019-05-13T09:45:41.777Z,31.40
2019-05-13T09:48:13.646Z,31.30
2019-05-13T09:50:45.904Z,31.50
2019-05-13T09:53:17.669Z,31.70
2019-05-13T09:55:52.136Z,31.60
2019-05-13T09:58:23.255Z,31.60
2019-05-13T10:00:55.403Z,31.60
2019-05-13T10:03:29.606Z,31.30
2019-05-13T10:06:02.353Z,31.10
2019-05-13T10:08:35.677Z,31.40
2019-05-13T10:11:07.799Z,31.50
2019-05-13T10:13:39.564Z,31.30
2019-05-13T10:16:12.434Z,31.20
2019-05-13T10:18:44.589Z,31.10
2019-05-13T10:21:16.667Z,31.00
2019-05-13T10:23:48.443Z,31.10
2019-05-13T10:26:22.655Z,31.10
2019-05-13T10:28:55.351Z,31.10
2019-05-13T10:31:27.226Z,31.10
2019-05-13T10:33:59.052Z,30.90
2019-05-13T10:36:30.931Z,30.80
2019-05-13T10:39:02.748Z,30.90
2019-05-13T10:41:34.927Z,30.70
2019-05-13T10:44:06.836Z,30.30
2019-05-13T10:46:42.662Z,30.20
2019-05-13T10:49:14.868Z,30.30
2019-05-13T10:51:46.710Z,30.60
2019-05-13T10:54:18.511Z,30.70
2019-05-13T10:56:53.174Z,30.90
2019-05-13T10:59:24.163Z,30.80
2019-05-13T11:01:56.019Z,30.70
2019-05-13T11:04:27.799Z,30.80
2019-05-13T11:07:02.357Z,30.60
2019-05-13T11:09:33.566Z,30.50
2019-05-13T11:12:07.901Z,30.40
2019-05-13T11:14:42.212Z,30.30
2019-05-13T11:17:14.224Z,30.40
2019-05-13T11:19:45.998Z,30.30
2019-05-13T11:22:17.868Z,30.30
2019-05-13T11:24:51.858Z,30.20
2019-05-13T11:27:23.633Z,30.40
2019-05-13T11:29:55.578Z,30.50
2019-05-13T11:32:27.426Z,30.40
2019-05-13T11:35:01.692Z,30.50
2019-05-13T11:37:33.066Z,30.40
2019-05-13T11:40:04.938Z,30.30
2019-05-13T11:42:37.145Z,30.50
2019-05-13T11:45:11.734Z,30.40
2019-05-13T11:47:44.857Z,30.50
2019-05-13T11:50:18.227Z,30.40
2019-05-13T11:52:52.422Z,30.50
2019-05-13T11:55:23.832Z,30.70
2019-05-13T11:57:55.887Z,30.80
2019-05-13T12:01:02.916Z,31.10
2019-05-13T12:03:35.601Z,31.10
2019-05-13T12:06:07.394Z,31.20
2019-05-13T12:08:39.278Z,31.10
2019-05-13T12:11:14.091Z,31.20
2019-05-13T12:13:44.974Z,31.10
2019-05-13T12:16:16.915Z,31.40
2019-05-13T12:18:51.186Z,31.30
2019-05-13T12:21:22.614Z,31.30
2019-05-13T12:23:56.267Z,31.00
2019-05-13T12:26:28.079Z,31.00
2019-05-13T12:29:02.844Z,31.10
2019-05-13T12:31:33.870Z,30.90
2019-05-13T12:34:05.871Z,31.10
2019-05-13T12:36:37.790Z,31.20
2019-05-13T12:39:13.846Z,31.40
2019-05-13T12:41:43.539Z,31.50
2019-05-13T12:44:16.788Z,31.60
2019-05-13T12:46:54.102Z,31.50
2019-05-13T12:49:32.078Z,31.60
2019-05-13T12:52:01.738Z,31.70
2019-05-13T12:54:32.564Z,31.30
2019-05-13T12:57:11.694Z,31.40
2019-05-13T12:59:38.368Z,31.60
2019-05-13T13:02:13.383Z,31.50
2019-05-13T13:05:07.890Z,31.60
2019-05-13T13:07:17.461Z,31.50
2019-05-13T13:09:53.116Z,31.50
2019-05-13T13:12:33.740Z,31.20
2019-05-13T13:14:57.316Z,31.20
2019-05-13T13:17:29.119Z,31.20
2019-05-13T13:20:08.866Z,31.30
2019-05-13T13:22:34.680Z,31.20
2019-05-13T13:25:08.054Z,31.40
2019-05-13T13:28:03.756Z,31.20
2019-05-13T13:30:14.412Z,31.10
2019-05-13T13:32:46.611Z,31.10
2019-05-13T13:35:18.794Z,30.80
2019-05-13T13:37:53.088Z,30.30
2019-05-13T13:40:29.358Z,30.30
2019-05-13T13:42:57.929Z,30.50
2019-05-13T13:45:36.735Z,30.50
2019-05-13T13:48:04.450Z,30.40
2019-05-13T13:50:36.398Z,30.30
2019-05-13T13:53:08.211Z,30.50
2019-05-13T13:55:43.332Z,31.10
2019-05-13T13:58:14.386Z,31.50
2019-05-13T14:01:00.635Z,31.50
2019-05-13T14:03:20.630Z,31.60
2019-05-13T14:05:53.686Z,31.90
2019-05-13T14:08:26.090Z,31.90
2019-05-13T14:10:58.140Z,32.00
2019-05-13T14:13:32.203Z,32.00
2019-05-13T14:16:04.112Z,31.80
2019-05-13T14:18:36.088Z,31.80
2019-05-13T14:21:08.343Z,31.80
2019-05-13T14:23:42.585Z,31.90
2019-05-13T14:26:14.324Z,32.00
2019-05-13T14:28:46.143Z,32.10
2019-05-13T14:31:18.458Z,32.10
2019-05-13T14:33:52.151Z,32.10
2019-05-13T14:36:24.616Z,32.10
2019-05-13T14:38:56.532Z,31.90
2019-05-13T14:41:31.130Z,31.90
2019-05-13T14:44:03.729Z,31.80
2019-05-13T14:46:55.432Z,31.90
2019-05-13T14:49:12.307Z,32.00
2019-05-13T14:51:43.796Z,32.00
2019-05-13T14:54:15.598Z,32.00
2019-05-13T14:56:47.424Z,32.10
2019-05-13T14:59:21.864Z,32.10
2019-05-13T15:01:53.169Z,31.90
2019-05-13T15:04:24.961Z,31.90
2019-05-13T15:06:56.998Z,31.80
2019-05-13T15:09:31.264Z,31.70
2019-05-13T15:12:02.553Z,31.50
2019-05-13T15:14:34.418Z,31.50
2019-05-13T15:17:07.647Z,31.50
2019-05-13T15:19:41.425Z,31.20
2019-05-13T15:22:16.050Z,31.20
2019-05-13T15:24:47.438Z,31.30
2019-05-13T15:27:22.077Z,31.30
2019-05-13T15:29:53.167Z,31.30
2019-05-13T15:32:25.243Z,31.40
2019-05-13T15:34:57.062Z,31.40
2019-05-13T15:37:31.958Z,31.40
2019-05-13T15:40:03.319Z,31.40
2019-05-13T15:42:35.229Z,31.30
2019-05-13T15:45:08.611Z,31.40
2019-05-13T15:47:40.913Z,31.50
2019-05-13T15:50:12.839Z,31.50
2019-05-13T15:52:44.776Z,31.50
2019-05-13T15:55:16.568Z,31.50
2019-05-13T15:57:48.785Z,31.60
2019-05-13T16:00:21.991Z,31.60
2019-05-13T16:02:54.645Z,31.50
2019-05-13T16:05:26.494Z,31.60
2019-05-13T16:07:58.661Z,31.60
2019-05-13T16:10:30.449Z,31.60
2019-05-13T16:13:02.512Z,31.60
2019-05-13T16:15:34.671Z,31.60
2019-05-13T16:18:06.872Z,31.50
2019-05-13T16:20:42.579Z,31.50
2019-05-13T16:23:13.644Z,31.50
2019-05-13T16:25:45.560Z,31.50
2019-05-13T16:28:17.880Z,31.50
2019-05-13T16:30:51.537Z,31.60
2019-05-13T16:33:23.452Z,31.60
2019-05-13T16:35:55.435Z,31.50
2019-05-13T16:38:27.575Z,31.40
2019-05-13T16:40:59.421Z,31.30
2019-05-13T16:43:32.071Z,31.20
2019-05-13T16:46:07.094Z,31.20
2019-05-13T16:48:38.730Z,31.30
2019-05-13T16:51:12.551Z,31.20
2019-05-13T16:53:44.395Z,31.30
2019-05-13T16:56:26.478Z,31.30
2019-05-13T16:58:52.159Z,31.30
2019-05-13T17:01:24.019Z,31.30
2019-05-13T17:03:56.318Z,31.30
2019-05-13T17:06:28.230Z,31.20
2019-05-13T17:09:01.991Z,31.20
2019-05-13T17:11:34.831Z,31.10
2019-05-13T17:14:07.097Z,31.10
2019-05-13T17:16:41.200Z,31.10
2019-05-13T17:19:12.686Z,31.00
2019-05-13T17:21:44.613Z,31.10
2019-05-13T17:24:16.738Z,31.10
2019-05-13T17:26:52.121Z,31.00
2019-05-13T17:29:23.398Z,31.00
2019-05-13T17:31:55.359Z,31.00
2019-05-13T17:34:27.349Z,31.00
2019-05-13T17:36:59.204Z,31.00
2019-05-13T17:39:32.116Z,31.10
2019-05-13T17:42:04.601Z,31.10
2019-05-13T17:44:37.084Z,31.10
2019-05-13T17:47:11.153Z,31.10
2019-05-13T17:49:43.322Z,31.10
2019-05-13T17:52:15.413Z,31.10
2019-05-13T17:54:47.473Z,31.20
2019-05-13T17:57:21.438Z,31.30
2019-05-13T17:59:53.135Z,31.40
2019-05-13T18:02:25.131Z,31.40
2019-05-13T18:04:57.582Z,31.50
2019-05-13T18:07:31.932Z,31.50
2019-05-13T18:10:03.725Z,31.50
2019-05-13T18:12:35.771Z,31.30
2019-05-13T18:15:08.889Z,31.20
2019-05-13T18:17:41.842Z,31.30
2019-05-13T18:20:14.797Z,31.40
2019-05-13T18:22:46.716Z,31.40
2019-05-13T18:25:18.667Z,31.50
2019-05-13T18:27:52.139Z,31.50
2019-05-13T18:30:24.499Z,31.30
2019-05-13T18:32:56.433Z,31.40
2019-05-13T18:35:28.531Z,31.50
2019-05-13T18:38:01.420Z,31.50
2019-05-13T18:40:33.558Z,31.40
2019-05-13T18:43:05.483Z,31.40
2019-05-13T18:45:37.426Z,31.50
2019-05-13T18:48:12.113Z,31.50
2019-05-13T18:50:44.000Z,31.20
2019-05-13T18:53:16.466Z,31.10
2019-05-13T18:55:48.545Z,31.00
2019-05-13T18:58:22.228Z,31.00
2019-05-13T19:00:54.610Z,30.90
2019-05-13T19:03:26.567Z,31.00
2019-05-13T19:06:00.276Z,31.10
2019-05-13T19:08:32.350Z,31.20
2019-05-13T19:11:04.442Z,31.20
2019-05-13T19:13:36.344Z,31.30
2019-05-13T19:16:08.753Z,31.30
2019-05-13T19:18:42.352Z,31.30
2019-05-13T19:21:15.465Z,31.30
2019-05-13T19:23:47.496Z,31.30
2019-05-13T19:26:21.671Z,31.40
2019-05-13T19:28:54.515Z,31.40
2019-05-13T19:31:26.890Z,31.50
2019-05-13T19:33:58.907Z,31.50
2019-05-13T19:36:32.537Z,31.40
2019-05-13T19:39:06.054Z,31.50
2019-05-13T19:41:38.255Z,31.50
2019-05-13T19:44:10.230Z,31.30
2019-05-13T19:46:42.429Z,31.20
2019-05-13T19:49:28.597Z,31.20
2019-05-13T19:51:52.179Z,31.40
2019-05-13T19:54:25.071Z,31.40
2019-05-13T19:56:57.887Z,31.40
2019-05-13T19:59:32.073Z,31.50
2019-05-13T20:02:04.432Z,31.50
2019-05-13T20:04:36.430Z,31.50
2019-05-13T20:07:11.791Z,31.50
2019-05-13T20:09:43.434Z,31.50
2019-05-13T20:12:16.029Z,31.40
2019-05-13T20:14:51.590Z,31.30
2019-05-13T20:17:23.320Z,31.30
2019-05-13T20:19:55.129Z,31.30
2019-05-13T20:22:27.063Z,31.30
2019-05-13T20:24:59.150Z,31.30
2019-05-13T20:27:31.762Z,31.30
2019-05-13T20:30:03.680Z,31.20
2019-05-13T20:32:35.524Z,31.30
2019-05-13T20:35:07.763Z,31.30
2019-05-13T20:37:40.181Z,31.40
2019-05-13T20:40:12.039Z,31.30
2019-05-13T20:42:44.328Z,31.30
2019-05-13T20:45:16.619Z,31.30
2019-05-13T20:47:48.730Z,31.30
2019-05-13T20:50:21.657Z,31.30
2019-05-13T20:52:54.444Z,31.30
2019-05-13T20:55:26.517Z,31.20
2019-05-13T20:57:58.538Z,31.30
2019-05-13T21:00:31.435Z,31.20
2019-05-13T21:03:03.688Z,31.10
2019-05-13T21:05:36.031Z,31.00
2019-05-13T21:08:07.851Z,30.90
2019-05-13T21:10:42.012Z,30.90
2019-05-13T21:13:14.099Z,30.80
2019-05-13T21:15:45.970Z,30.70
2019-05-13T21:18:17.989Z,30.70
2019-05-13T21:20:49.831Z,30.50
2019-05-13T21:23:22.437Z,30.40
2019-05-13T21:25:54.295Z,30.40
2019-05-13T21:28:26.394Z,30.40
2019-05-13T21:30:58.224Z,30.50
2019-05-13T21:33:31.550Z,30.50
2019-05-13T21:36:03.493Z,30.30
2019-05-13T21:38:35.648Z,30.40
2019-05-13T21:41:07.450Z,30.40
2019-05-13T21:43:41.406Z,30.50
2019-05-13T21:46:13.369Z,30.50
2019-05-13T21:48:45.496Z,30.50
2019-05-13T21:51:17.486Z,30.50
2019-05-13T21:53:51.743Z,30.50
2019-05-13T21:56:23.380Z,30.50
2019-05-13T21:58:55.494Z,30.60
2019-05-13T22:01:27.436Z,30.60
2019-05-13T22:04:01.579Z,30.60
2019-05-13T22:06:33.097Z,30.60
2019-05-13T22:09:07.950Z,30.70
2019-05-13T22:11:41.801Z,30.60
2019-05-13T22:14:14.723Z,30.70
2019-05-13T22:16:46.489Z,30.80
2019-05-13T22:19:18.453Z,30.70
2019-05-13T22:21:51.520Z,30.80
2019-05-13T22:24:23.814Z,30.80
2019-05-13T22:26:55.622Z,30.80
2019-05-13T22:29:27.637Z,30.80
2019-05-13T22:32:01.779Z,30.80
2019-05-13T22:34:33.060Z,30.70
2019-05-13T22:37:04.852Z,30.70
2019-05-13T22:39:37.087Z,30.60
2019-05-13T22:42:08.987Z,30.60
2019-05-13T22:44:41.697Z,30.60
2019-05-13T22:47:13.855Z,30.50
2019-05-13T22:49:45.802Z,30.60
2019-05-13T22:52:17.677Z,30.60
2019-05-13T22:54:51.677Z,30.50
2019-05-13T22:57:23.108Z,30.60
2019-05-13T22:59:55.192Z,30.50
2019-05-13T23:02:27.129Z,30.50
2019-05-13T23:04:59.219Z,30.40
2019-05-13T23:07:31.565Z,30.40
2019-05-13T23:10:03.871Z,30.40
2019-05-13T23:12:35.661Z,30.20
2019-05-13T23:15:08.712Z,30.20
2019-05-13T23:17:41.499Z,30.20
2019-05-13T23:20:14.245Z,30.30
2019-05-13T23:22:46.013Z,30.30
2019-05-13T23:25:21.429Z,30.20
2019-05-13T23:27:52.977Z,30.20
2019-05-13T23:30:25.318Z,30.30
2019-05-13T23:32:57.108Z,30.30
2019-05-13T23:35:28.969Z,30.10
2019-05-13T23:38:01.625Z,30.20
2019-05-13T23:40:34.199Z,30.30
2019-05-13T23:43:05.942Z,30.30
2019-05-13T23:45:37.783Z,30.40
2019-05-13T23:48:09.578Z,30.40
2019-05-13T23:50:41.635Z,30.40
2019-05-13T23:53:13.671Z,30.40
2019-05-13T23:55:45.741Z,30.40
2019-05-13T23:58:17.497Z,30.50
